sensor_id;sensor_type;location;lat;lon;timestamp;temperature;humidity
46335;DHT22;32051;48.882;9.210;2023-03-01T00:21:38;-0.20;99.90
46335;DHT22;32051;48.882;9.210;2023-03-01T00:24:04;-0.20;99.90
46335;DHT22;32051;48.882;9.210;2023-03-01T00:26:30;-0.30;99.90
46335;DHT22;32051;48.882;9.210;2023-03-01T03:30:10;-0.60;99.90
46335;DHT22;32051;48.882;9.210;2023-03-01T03:32:39;0.30;99.90
46335;DHT22;32051;48.882;9.210;2023-03-01T03:35:06;0.30;99.90
46335;DHT22;32051;48.882;9.210;2023-03-01T03:37:41;0.30;99.90
46335;DHT22;32051;48.882;9.210;2023-03-01T03:40:26;0.30;99.90
46335;DHT22;32051;48.882;9.210;2023-03-01T03:42:51;0.40;99.90
46335;DHT22;32051;48.882;9.210;2023-03-01T03:45:17;0.40;99.90
46335;DHT22;32051;48.882;9.210;2023-03-01T03:47:44;0.40;99.90
46335;DHT22;32051;48.882;9.210;2023-03-01T03:50:11;0.40;99.90
46335;DHT22;32051;48.882;9.210;2023-03-01T03:52:37;0.40;99.90
46335;DHT22;32051;48.882;9.210;2023-03-01T03:55:04;0.40;99.90
46335;DHT22;32051;48.882;9.210;2023-03-01T03:57:35;0.40;99.90
46335;DHT22;32051;48.882;9.210;2023-03-01T04:00:01;0.50;99.90
46335;DHT22;32051;48.882;9.210;2023-03-01T04:02:44;0.40;99.90
46335;DHT22;32051;48.882;9.210;2023-03-01T04:05:11;0.50;99.90
46335;DHT22;32051;48.882;9.210;2023-03-01T04:07:37;0.50;99.90
46335;DHT22;32051;48.882;9.210;2023-03-01T04:12:41;0.50;99.90
46335;DHT22;32051;48.882;9.210;2023-03-01T04:15:10;0.50;99.90
46335;DHT22;32051;48.882;9.210;2023-03-01T04:17:40;0.50;99.90
46335;DHT22;32051;48.882;9.210;2023-03-01T04:20:11;0.50;99.90
46335;DHT22;32051;48.882;9.210;2023-03-01T04:22:38;0.60;99.90
46335;DHT22;32051;48.882;9.210;2023-03-01T04:25:04;0.60;99.90
46335;DHT22;32051;48.882;9.210;2023-03-01T04:27:35;0.60;99.90
46335;DHT22;32051;48.882;9.210;2023-03-01T04:30:03;0.60;99.90
46335;DHT22;32051;48.882;9.210;2023-03-01T04:32:28;0.60;99.90
46335;DHT22;32051;48.882;9.210;2023-03-01T04:34:54;0.60;99.90
46335;DHT22;32051;48.882;9.210;2023-03-01T04:37:20;0.60;99.90
46335;DHT22;32051;48.882;9.210;2023-03-01T04:39:45;0.60;99.90
46335;DHT22;32051;48.882;9.210;2023-03-01T04:42:13;0.60;99.90
46335;DHT22;32051;48.882;9.210;2023-03-01T04:44:38;0.60;99.90
46335;DHT22;32051;48.882;9.210;2023-03-01T04:47:04;0.60;99.90
46335;DHT22;32051;48.882;9.210;2023-03-01T04:49:30;0.60;99.90
46335;DHT22;32051;48.882;9.210;2023-03-01T04:51:56;0.60;99.90
46335;DHT22;32051;48.882;9.210;2023-03-01T04:54:28;0.60;99.90
46335;DHT22;32051;48.882;9.210;2023-03-01T04:56:54;0.60;99.90
46335;DHT22;32051;48.882;9.210;2023-03-01T04:59:20;0.60;99.90
46335;DHT22;32051;48.882;9.210;2023-03-01T05:01:50;0.60;99.90
46335;DHT22;32051;48.882;9.210;2023-03-01T05:04:15;0.60;99.90
46335;DHT22;32051;48.882;9.210;2023-03-01T05:06:41;0.60;99.90
46335;DHT22;32051;48.882;9.210;2023-03-01T05:09:07;0.60;99.90
46335;DHT22;32051;48.882;9.210;2023-03-01T05:11:32;0.60;99.90
46335;DHT22;32051;48.882;9.210;2023-03-01T05:14:04;0.60;99.90
46335;DHT22;32051;48.882;9.210;2023-03-01T05:16:31;0.60;99.90
46335;DHT22;32051;48.882;9.210;2023-03-01T05:18:57;0.50;99.90
46335;DHT22;32051;48.882;9.210;2023-03-01T05:21:23;0.60;99.90
46335;DHT22;32051;48.882;9.210;2023-03-01T05:23:49;0.50;99.90
46335;DHT22;32051;48.882;9.210;2023-03-01T05:26:16;0.50;99.90
46335;DHT22;32051;48.882;9.210;2023-03-01T05:28:43;0.50;99.90
46335;DHT22;32051;48.882;9.210;2023-03-01T05:31:09;0.60;99.90
46335;DHT22;32051;48.882;9.210;2023-03-01T05:33:39;0.50;99.90
46335;DHT22;32051;48.882;9.210;2023-03-01T05:36:06;0.50;99.90
46335;DHT22;32051;48.882;9.210;2023-03-01T05:38:32;0.50;99.90
46335;DHT22;32051;48.882;9.210;2023-03-01T05:40:58;0.50;99.90
46335;DHT22;32051;48.882;9.210;2023-03-01T05:43:24;0.50;99.90
46335;DHT22;32051;48.882;9.210;2023-03-01T05:45:49;0.60;99.90
46335;DHT22;32051;48.882;9.210;2023-03-01T05:48:15;0.60;99.90
46335;DHT22;32051;48.882;9.210;2023-03-01T05:50:43;0.60;99.90
46335;DHT22;32051;48.882;9.210;2023-03-01T05:53:11;0.60;99.90
46335;DHT22;32051;48.882;9.210;2023-03-01T05:55:38;0.60;99.90
46335;DHT22;32051;48.882;9.210;2023-03-01T05:58:06;0.60;99.90
46335;DHT22;32051;48.882;9.210;2023-03-01T06:00:33;0.60;99.90
46335;DHT22;32051;48.882;9.210;2023-03-01T06:02:59;0.60;99.90
46335;DHT22;32051;48.882;9.210;2023-03-01T06:05:25;0.60;99.90
46335;DHT22;32051;48.882;9.210;2023-03-01T06:07:51;0.60;99.90
46335;DHT22;32051;48.882;9.210;2023-03-01T06:10:19;0.70;99.90
46335;DHT22;32051;48.882;9.210;2023-03-01T06:12:45;0.60;99.90
46335;DHT22;32051;48.882;9.210;2023-03-01T06:15:13;0.60;99.90
46335;DHT22;32051;48.882;9.210;2023-03-01T06:17:40;0.60;99.90
46335;DHT22;32051;48.882;9.210;2023-03-01T06:20:11;0.60;99.90
46335;DHT22;32051;48.882;9.210;2023-03-01T06:22:38;0.60;99.90
46335;DHT22;32051;48.882;9.210;2023-03-01T06:25:04;0.60;99.90
46335;DHT22;32051;48.882;9.210;2023-03-01T06:27:31;0.60;99.90
46335;DHT22;32051;48.882;9.210;2023-03-01T06:29:56;0.60;99.90
46335;DHT22;32051;48.882;9.210;2023-03-01T06:32:22;0.60;99.90
46335;DHT22;32051;48.882;9.210;2023-03-01T06:34:47;0.60;99.90
46335;DHT22;32051;48.882;9.210;2023-03-01T06:37:13;0.60;99.90
46335;DHT22;32051;48.882;9.210;2023-03-01T06:39:39;0.50;99.90
46335;DHT22;32051;48.882;9.210;2023-03-01T06:42:04;0.50;99.90
46335;DHT22;32051;48.882;9.210;2023-03-01T06:44:30;0.50;99.90
46335;DHT22;32051;48.882;9.210;2023-03-01T06:46:56;0.50;99.90
46335;DHT22;32051;48.882;9.210;2023-03-01T06:49:22;0.50;99.90
46335;DHT22;32051;48.882;9.210;2023-03-01T06:51:47;0.50;99.90
46335;DHT22;32051;48.882;9.210;2023-03-01T06:54:13;0.50;99.90
46335;DHT22;32051;48.882;9.210;2023-03-01T06:56:39;0.50;99.90
46335;DHT22;32051;48.882;9.210;2023-03-01T06:59:05;0.50;99.90
46335;DHT22;32051;48.882;9.210;2023-03-01T07:01:31;0.50;99.90
46335;DHT22;32051;48.882;9.210;2023-03-01T07:03:57;0.50;99.90
46335;DHT22;32051;48.882;9.210;2023-03-01T07:06:23;0.50;99.90
46335;DHT22;32051;48.882;9.210;2023-03-01T07:08:49;0.50;99.90
46335;DHT22;32051;48.882;9.210;2023-03-01T07:11:15;0.60;99.90
46335;DHT22;32051;48.882;9.210;2023-03-01T07:13:42;0.60;99.90
46335;DHT22;32051;48.882;9.210;2023-03-01T07:16:08;0.60;99.90
46335;DHT22;32051;48.882;9.210;2023-03-01T07:18:34;0.70;99.90
46335;DHT22;32051;48.882;9.210;2023-03-01T07:21:04;0.70;99.90
46335;DHT22;32051;48.882;9.210;2023-03-01T07:23:31;0.70;99.90
46335;DHT22;32051;48.882;9.210;2023-03-01T07:25:56;0.80;99.90
46335;DHT22;32051;48.882;9.210;2023-03-01T07:28:23;0.80;99.90
46335;DHT22;32051;48.882;9.210;2023-03-01T07:30:49;0.90;99.90
46335;DHT22;32051;48.882;9.210;2023-03-01T07:33:15;0.90;99.90
46335;DHT22;32051;48.882;9.210;2023-03-01T07:35:40;1.00;99.90
46335;DHT22;32051;48.882;9.210;2023-03-01T07:38:06;1.10;99.90
46335;DHT22;32051;48.882;9.210;2023-03-01T07:42:58;1.10;99.90
46335;DHT22;32051;48.882;9.210;2023-03-01T07:45:25;1.30;99.90
46335;DHT22;32051;48.882;9.210;2023-03-01T07:47:51;1.30;99.90
46335;DHT22;32051;48.882;9.210;2023-03-01T07:50:18;1.40;99.90
46335;DHT22;32051;48.882;9.210;2023-03-01T07:52:48;1.50;99.90
46335;DHT22;32051;48.882;9.210;2023-03-01T08:39:14;1.60;99.90
46335;DHT22;32051;48.882;9.210;2023-03-01T11:35:26;11.70;99.90
46335;DHT22;32051;48.882;9.210;2023-03-01T11:40:34;15.70;74.20
46335;DHT22;32051;48.882;9.210;2023-03-01T11:45:58;16.10;71.70
46335;DHT22;32051;48.882;9.210;2023-03-01T11:51:02;16.60;69.00
46335;DHT22;32051;48.882;9.210;2023-03-01T12:04:26;16.80;68.50
46335;DHT22;32051;48.882;9.210;2023-03-01T12:07:20;17.10;68.30
46335;DHT22;32051;48.882;9.210;2023-03-01T12:10:21;17.20;67.10
46335;DHT22;32051;48.882;9.210;2023-03-01T12:35:03;17.80;64.40
46335;DHT22;32051;48.882;9.210;2023-03-01T12:40:30;17.70;64.30
46335;DHT22;32051;48.882;9.210;2023-03-01T12:46:02;18.20;63.20
46335;DHT22;32051;48.882;9.210;2023-03-01T12:51:16;17.90;63.00
46335;DHT22;32051;48.882;9.210;2023-03-01T12:53:51;17.90;63.20
46335;DHT22;32051;48.882;9.210;2023-03-01T12:56:21;18.20;63.00
46335;DHT22;32051;48.882;9.210;2023-03-01T12:58:59;18.30;63.50
46335;DHT22;32051;48.882;9.210;2023-03-01T13:01:42;18.40;61.80
46335;DHT22;32051;48.882;9.210;2023-03-01T13:10:01;18.50;61.30
46335;DHT22;32051;48.882;9.210;2023-03-01T13:20:18;19.10;61.20
46335;DHT22;32051;48.882;9.210;2023-03-01T13:35:43;19.70;76.70
46335;DHT22;32051;48.882;9.210;2023-03-01T13:38:38;19.50;70.50
46335;DHT22;32051;48.882;9.210;2023-03-01T13:41:05;19.50;64.30
46335;DHT22;32051;48.882;9.210;2023-03-01T13:43:37;19.10;63.30
46335;DHT22;32051;48.882;9.210;2023-03-01T13:46:19;18.50;59.50
46335;DHT22;32051;48.882;9.210;2023-03-01T13:48:54;18.10;60.80
46335;DHT22;32051;48.882;9.210;2023-03-01T13:51:26;17.60;61.20
46335;DHT22;32051;48.882;9.210;2023-03-01T13:53:54;17.30;62.80
46335;DHT22;32051;48.882;9.210;2023-03-01T13:59:05;16.00;96.50
46335;DHT22;32051;48.882;9.210;2023-03-01T14:01:34;15.50;70.60
46335;DHT22;32051;48.882;9.210;2023-03-01T14:04:02;15.30;65.80
46335;DHT22;32051;48.882;9.210;2023-03-01T14:09:25;13.80;67.90
46335;DHT22;32051;48.882;9.210;2023-03-01T14:29:58;10.40;78.50
46335;DHT22;32051;48.882;9.210;2023-03-01T14:34:53;9.80;80.50
46335;DHT22;32051;48.882;9.210;2023-03-01T14:37:20;9.70;81.30
46335;DHT22;32051;48.882;9.210;2023-03-01T15:34:23;8.10;88.10
46335;DHT22;32051;48.882;9.210;2023-03-01T15:36:51;8.10;88.90
46335;DHT22;32051;48.882;9.210;2023-03-01T15:42:07;7.90;89.40
46335;DHT22;32051;48.882;9.210;2023-03-01T15:44:36;7.90;89.20
46335;DHT22;32051;48.882;9.210;2023-03-01T15:47:07;7.90;89.60
46335;DHT22;32051;48.882;9.210;2023-03-01T15:49:43;7.80;89.90
46335;DHT22;32051;48.882;9.210;2023-03-01T15:52:22;7.80;90.20
46335;DHT22;32051;48.882;9.210;2023-03-01T15:54:59;7.70;90.30
46335;DHT22;32051;48.882;9.210;2023-03-01T15:57:25;7.70;90.30
46335;DHT22;32051;48.882;9.210;2023-03-01T15:59:51;7.70;90.50
46335;DHT22;32051;48.882;9.210;2023-03-01T16:02:17;7.60;90.50
46335;DHT22;32051;48.882;9.210;2023-03-01T16:04:46;7.60;90.50
46335;DHT22;32051;48.882;9.210;2023-03-01T16:07:13;7.60;90.50
46335;DHT22;32051;48.882;9.210;2023-03-01T16:09:39;7.50;90.70
46335;DHT22;32051;48.882;9.210;2023-03-01T16:12:08;7.50;91.00
46335;DHT22;32051;48.882;9.210;2023-03-01T16:14:34;7.40;90.90
46335;DHT22;32051;48.882;9.210;2023-03-01T16:17:00;7.40;91.10
46335;DHT22;32051;48.882;9.210;2023-03-01T16:19:25;7.40;91.40
46335;DHT22;32051;48.882;9.210;2023-03-01T16:21:51;7.30;91.30
46335;DHT22;32051;48.882;9.210;2023-03-01T16:24:16;7.30;91.40
46335;DHT22;32051;48.882;9.210;2023-03-01T16:26:42;7.20;91.60
46335;DHT22;32051;48.882;9.210;2023-03-01T16:29:08;7.20;91.70
46335;DHT22;32051;48.882;9.210;2023-03-01T16:31:33;7.10;92.00
46335;DHT22;32051;48.882;9.210;2023-03-01T16:33:59;7.10;92.00
46335;DHT22;32051;48.882;9.210;2023-03-01T16:36:26;7.10;92.00
46335;DHT22;32051;48.882;9.210;2023-03-01T16:38:54;7.00;92.10
46335;DHT22;32051;48.882;9.210;2023-03-01T16:41:23;7.00;92.40
46335;DHT22;32051;48.882;9.210;2023-03-01T16:43:49;6.90;92.60
46335;DHT22;32051;48.882;9.210;2023-03-01T16:46:21;6.80;92.70
46335;DHT22;32051;48.882;9.210;2023-03-01T16:48:47;6.80;93.00
46335;DHT22;32051;48.882;9.210;2023-03-01T16:51:12;6.70;93.00
46335;DHT22;32051;48.882;9.210;2023-03-01T16:53:39;6.70;93.10
46335;DHT22;32051;48.882;9.210;2023-03-01T16:56:08;6.60;93.30
46335;DHT22;32051;48.882;9.210;2023-03-01T16:58:35;6.50;93.30
46335;DHT22;32051;48.882;9.210;2023-03-01T17:01:07;6.50;93.60
46335;DHT22;32051;48.882;9.210;2023-03-01T17:03:33;6.40;93.80
46335;DHT22;32051;48.882;9.210;2023-03-01T17:06:07;6.40;93.80
46335;DHT22;32051;48.882;9.210;2023-03-01T17:08:34;6.30;94.10
46335;DHT22;32051;48.882;9.210;2023-03-01T17:11:11;6.20;94.20
46335;DHT22;32051;48.882;9.210;2023-03-01T17:13:38;6.20;94.50
46335;DHT22;32051;48.882;9.210;2023-03-01T17:16:13;6.10;94.70
46335;DHT22;32051;48.882;9.210;2023-03-01T17:18:40;6.00;95.00
46335;DHT22;32051;48.882;9.210;2023-03-01T17:21:06;6.00;95.30
46335;DHT22;32051;48.882;9.210;2023-03-01T17:25:59;5.80;95.40
46335;DHT22;32051;48.882;9.210;2023-03-01T17:28:27;5.80;95.90
46335;DHT22;32051;48.882;9.210;2023-03-01T17:30:54;5.80;96.20
46335;DHT22;32051;48.882;9.210;2023-03-01T17:33:20;5.70;96.30
46335;DHT22;32051;48.882;9.210;2023-03-01T17:35:46;5.70;96.30
46335;DHT22;32051;48.882;9.210;2023-03-01T17:38:13;5.60;96.70
46335;DHT22;32051;48.882;9.210;2023-03-01T17:40:40;5.50;97.20
46335;DHT22;32051;48.882;9.210;2023-03-01T17:43:06;5.50;97.40
46335;DHT22;32051;48.882;9.210;2023-03-01T17:45:32;5.40;97.60
46335;DHT22;32051;48.882;9.210;2023-03-01T17:47:58;5.40;98.00
46335;DHT22;32051;48.882;9.210;2023-03-01T17:50:24;5.30;98.10
46335;DHT22;32051;48.882;9.210;2023-03-01T17:52:49;5.30;98.30
46335;DHT22;32051;48.882;9.210;2023-03-01T17:55:16;5.20;98.40
46335;DHT22;32051;48.882;9.210;2023-03-01T17:57:41;5.20;98.50
46335;DHT22;32051;48.882;9.210;2023-03-01T18:00:12;5.10;98.90
46335;DHT22;32051;48.882;9.210;2023-03-01T18:02:40;5.10;99.00
46335;DHT22;32051;48.882;9.210;2023-03-01T18:05:06;5.00;99.10
46335;DHT22;32051;48.882;9.210;2023-03-01T18:07:31;5.00;99.00
46335;DHT22;32051;48.882;9.210;2023-03-01T18:09:57;5.00;99.50
46335;DHT22;32051;48.882;9.210;2023-03-01T18:12:23;4.90;99.60
46335;DHT22;32051;48.882;9.210;2023-03-01T18:14:49;4.90;99.70
46335;DHT22;32051;48.882;9.210;2023-03-01T18:34:24;4.80;99.90
46335;DHT22;32051;48.882;9.210;2023-03-01T18:36:50;4.70;99.90
46335;DHT22;32051;48.882;9.210;2023-03-01T18:39:21;4.70;99.90
46335;DHT22;32051;48.882;9.210;2023-03-01T18:41:48;4.60;99.90
46335;DHT22;32051;48.882;9.210;2023-03-01T18:46:40;4.60;99.90
46335;DHT22;32051;48.882;9.210;2023-03-01T18:49:06;4.60;99.90
46335;DHT22;32051;48.882;9.210;2023-03-01T18:51:32;4.50;99.90
46335;DHT22;32051;48.882;9.210;2023-03-01T18:54:02;4.50;99.90
46335;DHT22;32051;48.882;9.210;2023-03-01T18:56:28;4.40;99.90
46335;DHT22;32051;48.882;9.210;2023-03-01T18:58:54;4.40;99.90
46335;DHT22;32051;48.882;9.210;2023-03-01T19:01:23;4.40;99.90
46335;DHT22;32051;48.882;9.210;2023-03-01T19:03:49;4.30;99.90
46335;DHT22;32051;48.882;9.210;2023-03-01T19:06:15;4.30;99.90
46335;DHT22;32051;48.882;9.210;2023-03-01T19:08:41;4.30;99.90
46335;DHT22;32051;48.882;9.210;2023-03-01T19:11:09;4.20;99.90
46335;DHT22;32051;48.882;9.210;2023-03-01T19:13:36;4.20;99.90
46335;DHT22;32051;48.882;9.210;2023-03-01T19:18:33;4.20;99.90
46335;DHT22;32051;48.882;9.210;2023-03-01T19:21:00;4.10;99.90
46335;DHT22;32051;48.882;9.210;2023-03-01T19:23:27;4.10;99.90
46335;DHT22;32051;48.882;9.210;2023-03-01T19:28:26;4.10;99.90
46335;DHT22;32051;48.882;9.210;2023-03-01T19:30:59;4.10;99.90
46335;DHT22;32051;48.882;9.210;2023-03-01T19:33:28;4.10;99.90
46335;DHT22;32051;48.882;9.210;2023-03-01T19:35:54;4.10;99.90
46335;DHT22;32051;48.882;9.210;2023-03-01T19:38:20;4.10;99.90
46335;DHT22;32051;48.882;9.210;2023-03-01T19:40:45;4.10;99.90
46335;DHT22;32051;48.882;9.210;2023-03-01T19:43:11;4.00;99.90
46335;DHT22;32051;48.882;9.210;2023-03-01T19:45:37;4.00;99.90
46335;DHT22;32051;48.882;9.210;2023-03-01T19:48:03;4.00;99.90
46335;DHT22;32051;48.882;9.210;2023-03-01T19:50:29;3.90;99.90
46335;DHT22;32051;48.882;9.210;2023-03-01T19:52:54;3.90;99.90
46335;DHT22;32051;48.882;9.210;2023-03-01T19:55:20;3.90;99.90
46335;DHT22;32051;48.882;9.210;2023-03-01T19:57:46;3.90;99.90
46335;DHT22;32051;48.882;9.210;2023-03-01T20:00:11;3.90;99.90
46335;DHT22;32051;48.882;9.210;2023-03-01T20:02:40;3.90;99.90
46335;DHT22;32051;48.882;9.210;2023-03-01T20:05:06;3.80;99.90
46335;DHT22;32051;48.882;9.210;2023-03-01T20:07:32;3.80;99.90
46335;DHT22;32051;48.882;9.210;2023-03-01T20:09:57;3.80;99.90
46335;DHT22;32051;48.882;9.210;2023-03-01T20:12:23;3.80;99.90
46335;DHT22;32051;48.882;9.210;2023-03-01T20:14:49;3.80;99.90
46335;DHT22;32051;48.882;9.210;2023-03-01T20:17:17;3.80;99.90
46335;DHT22;32051;48.882;9.210;2023-03-01T20:19:42;3.80;99.90
46335;DHT22;32051;48.882;9.210;2023-03-01T20:22:08;3.80;99.90
46335;DHT22;32051;48.882;9.210;2023-03-01T20:24:34;3.80;99.90
46335;DHT22;32051;48.882;9.210;2023-03-01T20:27:01;3.90;99.90
46335;DHT22;32051;48.882;9.210;2023-03-01T20:29:27;3.90;99.90
46335;DHT22;32051;48.882;9.210;2023-03-01T20:31:53;3.90;99.90
46335;DHT22;32051;48.882;9.210;2023-03-01T20:34:18;3.90;99.90
46335;DHT22;32051;48.882;9.210;2023-03-01T20:36:44;4.00;99.90
46335;DHT22;32051;48.882;9.210;2023-03-01T20:39:10;4.00;99.90
46335;DHT22;32051;48.882;9.210;2023-03-01T20:41:37;4.00;99.90
46335;DHT22;32051;48.882;9.210;2023-03-01T20:44:03;4.00;99.90
46335;DHT22;32051;48.882;9.210;2023-03-01T20:46:32;3.90;99.90
46335;DHT22;32051;48.882;9.210;2023-03-01T20:48:58;3.90;99.90
46335;DHT22;32051;48.882;9.210;2023-03-01T20:51:24;3.80;99.90
46335;DHT22;32051;48.882;9.210;2023-03-01T20:53:50;3.80;99.90
46335;DHT22;32051;48.882;9.210;2023-03-01T20:56:19;3.70;99.90
46335;DHT22;32051;48.882;9.210;2023-03-01T20:59:01;3.70;99.90
46335;DHT22;32051;48.882;9.210;2023-03-01T21:01:28;3.60;99.90
46335;DHT22;32051;48.882;9.210;2023-03-01T21:03:54;3.60;99.90
